createdAt,value
2022-10-23T00:01:01.741Z,11.30
2022-10-23T00:03:35.210Z,11.30
2022-10-23T00:06:10.511Z,11.40
2022-10-23T00:08:44.506Z,11.40
2022-10-23T00:11:20.364Z,11.40
2022-10-23T00:13:55.681Z,11.40
2022-10-23T00:16:30.426Z,11.40
2022-10-23T00:19:04.858Z,11.40
2022-10-23T00:21:39.867Z,11.40
2022-10-23T00:24:14.212Z,11.40
2022-10-23T00:26:47.607Z,11.40
2022-10-23T00:29:21.098Z,11.50
2022-10-23T00:31:54.708Z,11.50
2022-10-23T00:34:28.009Z,11.40
2022-10-23T00:37:03.025Z,11.40
2022-10-23T00:39:36.293Z,11.40
2022-10-23T00:42:12.088Z,11.40
2022-10-23T00:45:09.909Z,11.40
2022-10-23T00:47:43.601Z,11.40
2022-10-23T00:50:17.868Z,11.40
2022-10-23T00:52:55.122Z,11.40
2022-10-23T00:55:29.438Z,11.40
2022-10-23T00:58:03.034Z,11.40
2022-10-23T01:00:46.099Z,11.40
2022-10-23T01:03:21.931Z,11.40
2022-10-23T01:06:01.596Z,11.40
2022-10-23T01:08:42.565Z,11.40
2022-10-23T01:11:21.776Z,11.40
2022-10-23T01:16:52.155Z,11.40
2022-10-23T01:19:44.049Z,11.40
2022-10-23T01:22:33.804Z,11.40
2022-10-23T01:25:18.540Z,11.30
2022-10-23T01:28:00.899Z,11.40
2022-10-23T01:30:35.274Z,11.40
2022-10-23T01:33:12.960Z,11.40
2022-10-23T01:35:59.631Z,11.40
2022-10-23T01:38:42.151Z,11.30
2022-10-23T01:41:33.098Z,11.40
2022-10-23T01:44:15.937Z,11.40
2022-10-23T01:46:51.462Z,11.30
2022-10-23T01:49:25.892Z,11.30
2022-10-23T01:52:06.676Z,11.30
2022-10-23T01:54:45.070Z,11.40
2022-10-23T01:57:21.573Z,11.40
2022-10-23T02:00:02.614Z,11.40
2022-10-23T02:02:39.056Z,11.40
2022-10-23T02:05:18.189Z,11.40
2022-10-23T02:07:52.473Z,11.40
2022-10-23T02:10:32.150Z,11.40
2022-10-23T02:13:10.104Z,11.40
2022-10-23T02:15:50.026Z,11.40
2022-10-23T02:18:35.534Z,11.40
2022-10-23T02:21:12.795Z,11.40
2022-10-23T02:23:56.103Z,11.40
2022-10-23T02:26:35.010Z,11.40
2022-10-23T02:29:11.977Z,11.40
2022-10-23T02:31:50.293Z,11.50
2022-10-23T02:34:24.872Z,11.50
2022-10-23T02:36:58.484Z,11.50
2022-10-23T02:39:32.015Z,11.50
2022-10-23T02:42:12.579Z,11.50
2022-10-23T02:44:59.180Z,11.50
2022-10-23T02:47:43.134Z,11.50
2022-10-23T02:50:27.035Z,11.50
2022-10-23T02:53:09.225Z,11.50
2022-10-23T02:55:52.556Z,11.50
2022-10-23T02:58:30.072Z,11.60
2022-10-23T03:01:09.588Z,11.50
2022-10-23T03:03:49.909Z,11.60
2022-10-23T03:06:24.889Z,11.60
2022-10-23T03:09:01.214Z,11.50
2022-10-23T03:11:34.693Z,11.50
2022-10-23T03:14:09.487Z,11.50
2022-10-23T03:16:43.486Z,11.50
2022-10-23T03:19:18.348Z,11.50
2022-10-23T03:21:51.845Z,11.50
2022-10-23T03:24:27.399Z,11.50
2022-10-23T03:27:00.722Z,11.50
2022-10-23T03:29:38.829Z,11.50
2022-10-23T03:32:12.837Z,11.50
2022-10-23T03:34:47.713Z,11.50
2022-10-23T03:37:21.230Z,11.50
2022-10-23T03:39:54.504Z,11.40
2022-10-23T03:42:29.169Z,11.40
2022-10-23T03:45:02.531Z,11.40
2022-10-23T03:47:41.194Z,11.40
2022-10-23T03:50:16.593Z,11.40
2022-10-23T03:52:49.915Z,11.40
2022-10-23T03:55:23.508Z,11.40
2022-10-23T03:57:59.247Z,11.40
2022-10-23T04:00:32.868Z,11.30
2022-10-23T04:03:07.570Z,11.30
2022-10-23T04:05:45.166Z,11.30
2022-10-23T04:08:20.155Z,11.30
2022-10-23T04:10:56.378Z,11.30
2022-10-23T04:13:43.587Z,11.30
2022-10-23T04:16:17.633Z,11.20
2022-10-23T04:18:51.627Z,11.20
2022-10-23T04:21:26.282Z,11.20
2022-10-23T04:24:01.688Z,11.20
2022-10-23T04:26:35.193Z,11.10
2022-10-23T04:29:09.085Z,11.10
2022-10-23T04:31:42.402Z,11.10
2022-10-23T04:34:16.582Z,11.00
2022-10-23T04:36:51.246Z,10.90
2022-10-23T04:39:24.498Z,10.90
2022-10-23T04:41:57.927Z,10.80
2022-10-23T04:44:31.902Z,10.80
2022-10-23T04:47:05.470Z,10.80
2022-10-23T04:49:42.586Z,10.70
2022-10-23T04:52:41.008Z,10.70
2022-10-23T04:55:32.814Z,10.70
2022-10-23T04:58:17.610Z,10.60
2022-10-23T05:00:51.563Z,10.60
2022-10-23T05:03:30.345Z,10.60
2022-10-23T05:06:03.756Z,10.50
2022-10-23T05:08:56.775Z,10.50
2022-10-23T05:11:45.603Z,10.50
2022-10-23T05:14:22.734Z,10.40
2022-10-23T05:17:00.453Z,10.30
2022-10-23T05:19:40.020Z,10.30
2022-10-23T05:22:14.676Z,10.20
2022-10-23T05:24:59.312Z,10.20
2022-10-23T05:27:33.121Z,10.20
2022-10-23T05:30:07.594Z,10.10
2022-10-23T05:32:43.609Z,10.00
2022-10-23T05:35:22.484Z,9.90
2022-10-23T05:37:58.879Z,9.80
2022-10-23T05:40:33.904Z,9.80
2022-10-23T05:43:13.875Z,9.80
2022-10-23T05:45:54.423Z,9.70
2022-10-23T05:48:56.859Z,9.60
2022-10-23T05:51:44.162Z,9.50
2022-10-23T05:54:55.817Z,9.50
2022-10-23T05:57:50.588Z,9.50
2022-10-23T06:00:29.817Z,9.40
2022-10-23T06:03:22.044Z,9.40
2022-10-23T06:05:55.360Z,9.50
2022-10-23T06:08:34.740Z,9.50
2022-10-23T06:11:09.620Z,9.50
2022-10-23T06:13:46.037Z,9.50
2022-10-23T06:16:22.133Z,9.50
2022-10-23T06:18:55.961Z,9.50
2022-10-23T06:21:30.299Z,9.60
2022-10-23T06:24:03.575Z,9.60
2022-10-23T06:26:42.691Z,9.60
2022-10-23T06:29:23.064Z,9.70
2022-10-23T06:31:57.383Z,9.70
2022-10-23T06:34:30.838Z,9.80
2022-10-23T06:37:04.454Z,9.80
2022-10-23T06:39:46.685Z,9.80
2022-10-23T06:42:23.218Z,9.90
2022-10-23T06:45:06.536Z,9.90
2022-10-23T06:47:43.575Z,10.00
2022-10-23T06:50:40.058Z,10.10
2022-10-23T06:53:18.645Z,10.20
2022-10-23T06:56:00.709Z,10.30
2022-10-23T06:58:35.409Z,10.30
2022-10-23T07:01:18.963Z,10.40
2022-10-23T07:03:52.594Z,10.50
2022-10-23T07:06:31.384Z,10.50
2022-10-23T07:09:05.157Z,10.60
2022-10-23T07:12:04.414Z,10.60
2022-10-23T07:14:49.201Z,10.60
2022-10-23T07:17:24.297Z,10.70
2022-10-23T07:19:57.710Z,10.80
2022-10-23T07:22:31.216Z,10.90
2022-10-23T07:25:24.262Z,10.90
2022-10-23T07:27:57.547Z,11.00
2022-10-23T07:30:32.740Z,11.10
2022-10-23T07:33:11.373Z,11.20
2022-10-23T07:36:14.292Z,11.20
2022-10-23T07:38:48.074Z,11.30
2022-10-23T07:41:21.978Z,11.40
2022-10-23T07:43:55.412Z,11.40
2022-10-23T07:46:28.671Z,11.50
2022-10-23T07:49:03.518Z,11.50
2022-10-23T07:51:37.151Z,11.60
2022-10-23T07:54:13.275Z,11.60
2022-10-23T07:57:07.353Z,11.70
2022-10-23T07:59:48.320Z,11.90
2022-10-23T08:02:26.133Z,12.00
2022-10-23T08:05:01.120Z,12.10
2022-10-23T08:07:43.666Z,12.20
2022-10-23T08:10:17.607Z,12.40
2022-10-23T08:12:51.684Z,12.70
2022-10-23T08:15:28.253Z,12.90
2022-10-23T08:18:09.355Z,13.20
2022-10-23T08:20:52.984Z,13.50
2022-10-23T08:23:26.939Z,13.70
2022-10-23T08:26:01.804Z,13.90
2022-10-23T08:28:37.692Z,14.00
2022-10-23T08:31:13.902Z,14.10
2022-10-23T08:33:50.840Z,14.20
2022-10-23T08:36:27.545Z,14.40
2022-10-23T08:39:01.026Z,14.60
2022-10-23T08:41:36.813Z,14.80
2022-10-23T08:44:22.538Z,15.00
2022-10-23T08:47:03.024Z,15.20
2022-10-23T08:50:16.584Z,15.40
2022-10-23T08:52:57.857Z,15.60
2022-10-23T08:55:34.738Z,15.70
2022-10-23T08:58:15.143Z,16.00
2022-10-23T09:00:50.805Z,16.20
2022-10-23T09:03:24.195Z,16.30
2022-10-23T09:06:08.918Z,16.50
2022-10-23T09:08:54.894Z,16.70
2022-10-23T09:11:35.327Z,17.00
2022-10-23T09:14:34.107Z,17.20
2022-10-23T09:17:17.512Z,17.40
2022-10-23T09:19:55.595Z,17.60
2022-10-23T09:22:30.035Z,17.70
2022-10-23T09:25:09.303Z,18.00
2022-10-23T09:27:54.709Z,18.20
2022-10-23T09:30:33.557Z,18.30
2022-10-23T09:33:16.221Z,18.40
2022-10-23T09:35:54.085Z,18.60
2022-10-23T09:38:32.737Z,18.60
2022-10-23T09:41:14.361Z,18.70
2022-10-23T09:43:47.649Z,18.70
2022-10-23T09:46:26.024Z,18.80
2022-10-23T09:49:02.131Z,19.00
2022-10-23T09:51:41.863Z,19.20
2022-10-23T09:54:18.011Z,19.40
2022-10-23T09:56:56.045Z,19.60
2022-10-23T09:59:32.303Z,19.90
2022-10-23T10:02:26.187Z,20.00
2022-10-23T10:05:24.504Z,20.30
2022-10-23T10:08:01.421Z,20.50
2022-10-23T10:10:40.289Z,20.50
2022-10-23T10:13:34.673Z,20.50
2022-10-23T10:16:17.244Z,20.60
2022-10-23T10:18:57.689Z,20.70
2022-10-23T10:21:35.244Z,20.80
2022-10-23T10:24:18.585Z,20.60
2022-10-23T10:26:59.335Z,20.30
2022-10-23T10:29:49.296Z,20.20
2022-10-23T10:32:36.688Z,20.30
2022-10-23T10:35:26.612Z,20.40
2022-10-23T10:38:21.631Z,20.70
2022-10-23T10:41:15.588Z,20.90
2022-10-23T10:44:01.232Z,21.00
2022-10-23T10:46:45.169Z,20.90
2022-10-23T10:49:23.897Z,21.00
2022-10-23T10:52:20.162Z,21.20
2022-10-23T10:55:02.859Z,21.30
2022-10-23T10:57:41.056Z,21.30
2022-10-23T11:00:17.126Z,21.50
2022-10-23T11:02:58.627Z,21.60
2022-10-23T11:05:37.262Z,21.80
2022-10-23T11:08:16.345Z,22.10
2022-10-23T11:10:54.165Z,22.50
2022-10-23T11:13:29.748Z,22.80
2022-10-23T11:16:06.614Z,23.00
2022-10-23T11:18:44.490Z,23.30
2022-10-23T11:21:29.021Z,23.50
2022-10-23T11:24:33.495Z,23.70
2022-10-23T11:27:37.163Z,23.80
2022-10-23T11:30:25.114Z,24.00
2022-10-23T11:33:46.907Z,24.00
2022-10-23T11:36:22.200Z,24.00
2022-10-23T11:38:59.204Z,24.00
2022-10-23T11:41:35.449Z,24.00
2022-10-23T11:44:25.909Z,23.90
2022-10-23T11:47:03.662Z,24.10
2022-10-23T11:49:38.289Z,24.00
2022-10-23T11:52:27.173Z,24.10
2022-10-23T11:55:03.790Z,24.20
2022-10-23T11:57:37.063Z,24.30
2022-10-23T12:00:23.104Z,24.60
2022-10-23T12:02:59.190Z,24.70
2022-10-23T12:05:38.389Z,24.70
2022-10-23T12:08:22.970Z,24.70
2022-10-23T12:10:56.723Z,24.70
2022-10-23T12:13:43.402Z,24.70
2022-10-23T12:16:16.739Z,24.70
2022-10-23T12:18:53.026Z,24.70
2022-10-23T12:21:36.874Z,24.80
2022-10-23T12:24:39.873Z,24.80
2022-10-23T12:27:29.323Z,24.90
2022-10-23T12:30:16.451Z,24.90
2022-10-23T12:33:06.422Z,24.80
2022-10-23T12:36:10.322Z,24.90
2022-10-23T12:38:47.246Z,24.70
2022-10-23T12:41:27.636Z,24.40
2022-10-23T12:44:04.198Z,24.20
2022-10-23T12:46:42.219Z,23.90
2022-10-23T12:49:17.367Z,23.60
2022-10-23T12:51:57.234Z,23.40
2022-10-23T12:54:34.337Z,23.40
2022-10-23T12:57:21.425Z,23.40
2022-10-23T12:59:59.041Z,23.40
2022-10-23T13:02:33.725Z,23.40
2022-10-23T13:05:11.476Z,23.20
2022-10-23T13:07:47.305Z,23.20
2022-10-23T13:10:25.800Z,23.00
2022-10-23T13:13:08.875Z,22.80
2022-10-23T13:15:43.676Z,22.70
2022-10-23T13:18:17.817Z,22.80
2022-10-23T13:23:35.757Z,22.80
2022-10-23T13:26:26.298Z,22.60
2022-10-23T13:29:00.363Z,22.40
2022-10-23T13:31:34.633Z,22.20
2022-10-23T13:34:18.689Z,22.10
2022-10-23T13:36:55.636Z,22.10
2022-10-23T13:39:31.392Z,21.90
2022-10-23T13:42:13.961Z,21.80
2022-10-23T13:44:47.679Z,21.60
2022-10-23T13:47:21.114Z,21.50
2022-10-23T13:49:54.452Z,21.40
2022-10-23T13:52:27.759Z,21.20
2022-10-23T13:55:01.533Z,21.10
2022-10-23T13:57:36.192Z,20.80
2022-10-23T14:00:11.037Z,20.60
2022-10-23T14:02:45.669Z,20.50
2022-10-23T14:05:19.027Z,20.30
2022-10-23T14:07:52.355Z,20.10
2022-10-23T14:10:27.639Z,19.90
2022-10-23T14:13:02.626Z,19.80
2022-10-23T14:15:35.879Z,19.70
2022-10-23T14:18:09.159Z,19.50
2022-10-23T14:20:42.484Z,19.30
2022-10-23T14:23:15.815Z,19.20
2022-10-23T14:25:49.091Z,19.10
2022-10-23T14:28:23.743Z,19.00
2022-10-23T14:30:57.066Z,18.90
2022-10-23T14:33:30.417Z,18.70
2022-10-23T14:36:04.123Z,18.60
2022-10-23T14:38:37.758Z,18.50
2022-10-23T14:41:12.719Z,18.40
2022-10-23T14:43:47.358Z,18.30
2022-10-23T14:46:22.326Z,18.20
2022-10-23T14:48:59.904Z,18.10
2022-10-23T14:51:35.796Z,18.00
2022-10-23T14:54:09.543Z,17.90
2022-10-23T14:56:42.852Z,17.80
2022-10-23T14:59:17.482Z,17.80
2022-10-23T15:01:50.810Z,17.70
2022-10-23T15:04:24.475Z,17.60
2022-10-23T15:06:57.757Z,17.50
2022-10-23T15:09:32.721Z,17.40
2022-10-23T15:12:06.769Z,17.30
2022-10-23T15:14:41.425Z,17.20
2022-10-23T15:17:15.764Z,17.00
2022-10-23T15:19:49.196Z,17.00
2022-10-23T15:22:23.157Z,16.80
2022-10-23T15:24:56.873Z,16.70
2022-10-23T15:27:30.278Z,16.60
2022-10-23T15:30:06.306Z,16.60
2022-10-23T15:32:39.649Z,16.40
2022-10-23T15:35:12.975Z,16.20
2022-10-23T15:37:46.482Z,16.10
2022-10-23T15:40:19.958Z,15.90
2022-10-23T15:42:53.231Z,15.70
2022-10-23T15:45:30.602Z,15.50
2022-10-23T15:48:05.343Z,15.40
2022-10-23T15:50:38.917Z,15.30
2022-10-23T15:53:12.189Z,15.10
2022-10-23T15:55:45.508Z,15.00
2022-10-23T15:58:18.924Z,14.80
2022-10-23T16:00:53.718Z,14.70
2022-10-23T16:03:27.246Z,14.60
2022-10-23T16:06:00.600Z,14.40
2022-10-23T16:08:34.175Z,14.20
2022-10-23T16:11:15.621Z,14.10
2022-10-23T16:13:48.953Z,13.90
2022-10-23T16:16:24.261Z,13.80
2022-10-23T16:18:59.773Z,13.70
2022-10-23T16:21:35.174Z,13.50
2022-10-23T16:24:09.653Z,13.40
2022-10-23T16:26:42.906Z,13.30
2022-10-23T16:29:16.173Z,13.20
2022-10-23T16:31:51.131Z,13.20
2022-10-23T16:34:24.768Z,13.00
2022-10-23T16:36:58.089Z,13.00
2022-10-23T16:39:38.199Z,12.90
2022-10-23T16:42:30.813Z,12.80
2022-10-23T16:45:15.597Z,12.70
2022-10-23T16:47:50.267Z,12.60
2022-10-23T16:50:24.210Z,12.50
2022-10-23T16:52:57.468Z,12.40
2022-10-23T16:55:30.744Z,12.30
2022-10-23T16:58:04.004Z,12.30
2022-10-23T17:00:37.275Z,12.20
2022-10-23T17:03:11.981Z,12.10
2022-10-23T17:05:45.251Z,12.00
2022-10-23T17:08:18.526Z,12.00
2022-10-23T17:10:51.800Z,11.90
2022-10-23T17:13:25.055Z,11.80
2022-10-23T17:16:05.991Z,11.70
2022-10-23T17:18:43.866Z,11.60
2022-10-23T17:21:19.338Z,11.50
2022-10-23T17:23:53.477Z,11.40
2022-10-23T17:26:27.803Z,11.30
2022-10-23T17:29:03.246Z,11.20
2022-10-23T17:31:38.551Z,11.20
2022-10-23T17:34:15.769Z,11.10
2022-10-23T17:36:50.874Z,11.00
2022-10-23T17:39:26.464Z,11.00
2022-10-23T17:41:59.744Z,10.90
2022-10-23T17:44:33.042Z,10.80
2022-10-23T17:47:06.415Z,10.70
2022-10-23T17:49:42.861Z,10.60
2022-10-23T17:52:18.762Z,10.60
2022-10-23T17:54:53.444Z,10.50
2022-10-23T17:57:26.762Z,10.50
2022-10-23T18:00:00.135Z,10.40
2022-10-23T18:02:33.516Z,10.30
2022-10-23T18:05:09.106Z,10.30
2022-10-23T18:07:42.727Z,10.20
2022-10-23T18:10:16.228Z,10.10
2022-10-23T18:12:49.477Z,10.00
2022-10-23T18:15:23.191Z,10.00
2022-10-23T18:17:56.541Z,9.90
2022-10-23T18:20:31.170Z,9.80
2022-10-23T18:23:04.438Z,9.70
2022-10-23T18:25:42.988Z,9.60
2022-10-23T18:28:16.235Z,9.60
2022-10-23T18:30:52.204Z,9.50
2022-10-23T18:33:28.020Z,9.50
2022-10-23T18:36:02.713Z,9.50
2022-10-23T18:38:36.922Z,9.50
2022-10-23T18:41:10.274Z,9.40
2022-10-23T18:43:44.714Z,9.40
2022-10-23T18:46:18.276Z,9.30
2022-10-23T18:48:51.891Z,9.30
2022-10-23T18:51:28.695Z,9.20
2022-10-23T18:54:02.711Z,9.20
2022-10-23T18:56:36.230Z,9.10
2022-10-23T18:59:13.390Z,9.10
2022-10-23T19:01:46.823Z,9.10
2022-10-23T19:04:20.461Z,9.00
2022-10-23T19:06:55.242Z,9.00
2022-10-23T19:09:28.587Z,8.90
2022-10-23T19:12:02.488Z,8.90
2022-10-23T19:14:35.919Z,8.90
2022-10-23T19:17:12.538Z,8.90
2022-10-23T19:19:49.968Z,8.80
2022-10-23T19:22:25.034Z,8.80
2022-10-23T19:25:04.038Z,8.80
2022-10-23T19:27:38.263Z,8.80
2022-10-23T19:30:16.231Z,8.70
2022-10-23T19:32:52.166Z,8.70
2022-10-23T19:35:25.495Z,8.70
2022-10-23T19:38:00.212Z,8.60
2022-10-23T19:40:33.477Z,8.60
2022-10-23T19:43:06.902Z,8.60
2022-10-23T19:45:40.283Z,8.50
2022-10-23T19:48:13.800Z,8.50
2022-10-23T19:50:47.121Z,8.50
2022-10-23T19:53:21.785Z,8.40
2022-10-23T19:56:03.804Z,8.40
2022-10-23T19:58:37.223Z,8.40
2022-10-23T20:01:13.071Z,8.40
2022-10-23T20:03:48.812Z,8.30
2022-10-23T20:06:24.457Z,8.30
2022-10-23T20:08:59.172Z,8.40
2022-10-23T20:11:33.279Z,8.30
2022-10-23T20:14:06.861Z,8.30
2022-10-23T20:16:40.989Z,8.30
2022-10-23T20:21:51.351Z,8.40
2022-10-23T20:24:26.024Z,8.40
2022-10-23T20:26:59.372Z,8.40
2022-10-23T20:29:32.696Z,8.40
2022-10-23T20:32:06.306Z,8.40
2022-10-23T20:34:39.888Z,8.40
2022-10-23T20:37:13.221Z,8.40
2022-10-23T20:39:48.642Z,8.40
2022-10-23T20:42:21.976Z,8.40
2022-10-23T20:44:55.271Z,8.40
2022-10-23T20:47:28.587Z,8.40
2022-10-23T20:50:01.896Z,8.50
2022-10-23T20:52:37.924Z,8.50
2022-10-23T20:55:12.844Z,8.50
2022-10-23T20:57:46.758Z,8.50
2022-10-23T21:00:20.461Z,8.50
2022-10-23T21:02:54.045Z,8.50
2022-10-23T21:05:27.593Z,8.40
2022-10-23T21:08:00.845Z,8.50
2022-10-23T21:10:35.450Z,8.50
2022-10-23T21:13:08.722Z,8.40
2022-10-23T21:15:41.974Z,8.50
2022-10-23T21:18:26.514Z,8.50
2022-10-23T21:21:11.536Z,8.40
2022-10-23T21:23:44.874Z,8.40
2022-10-23T21:26:20.940Z,8.40
2022-10-23T21:29:16.894Z,8.50
2022-10-23T21:31:54.210Z,8.40
2022-10-23T21:34:28.303Z,8.40
2022-10-23T21:37:17.647Z,8.40
2022-10-23T21:39:50.974Z,8.40
2022-10-23T21:42:25.782Z,8.40
2022-10-23T21:44:59.037Z,8.40
2022-10-23T21:47:35.055Z,8.40
2022-10-23T21:50:09.144Z,8.40
2022-10-23T21:52:42.910Z,8.30
2022-10-23T21:55:16.469Z,8.40
2022-10-23T21:57:51.095Z,8.30
2022-10-23T22:00:25.026Z,8.30
2022-10-23T22:02:58.291Z,8.30
2022-10-23T22:05:31.697Z,8.30
2022-10-23T22:08:05.164Z,8.30
2022-10-23T22:10:38.798Z,8.30
2022-10-23T22:13:13.472Z,8.20
2022-10-23T22:15:46.731Z,8.20
2022-10-23T22:18:20.443Z,8.20
2022-10-23T22:20:56.235Z,8.20
2022-10-23T22:23:31.678Z,8.20
2022-10-23T22:26:06.909Z,8.20
2022-10-23T22:28:41.901Z,8.20
2022-10-23T22:31:16.200Z,8.20
2022-10-23T22:33:49.614Z,8.20
2022-10-23T22:36:23.201Z,8.20
2022-10-23T22:38:57.021Z,8.20
2022-10-23T22:41:30.554Z,8.20
2022-10-23T22:44:05.292Z,8.30
2022-10-23T22:46:39.104Z,8.30
2022-10-23T22:49:12.389Z,8.20
2022-10-23T22:51:45.621Z,8.20
2022-10-23T22:54:19.041Z,8.20
2022-10-23T22:56:52.331Z,8.20
2022-10-23T22:59:27.173Z,8.10
2022-10-23T23:02:00.422Z,8.10
2022-10-23T23:04:38.545Z,8.10
2022-10-23T23:07:13.892Z,8.10
2022-10-23T23:09:47.335Z,8.10
2022-10-23T23:12:20.640Z,8.10
2022-10-23T23:14:55.643Z,8.10
2022-10-23T23:17:28.867Z,8.10
2022-10-23T23:20:02.514Z,8.10
2022-10-23T23:22:35.818Z,8.00
2022-10-23T23:25:11.208Z,8.00
2022-10-23T23:27:44.653Z,8.00
2022-10-23T23:30:19.442Z,8.00
2022-10-23T23:32:53.401Z,8.00
2022-10-23T23:35:26.846Z,8.00
2022-10-23T23:38:00.168Z,8.00
2022-10-23T23:40:33.666Z,8.00
2022-10-23T23:43:07.285Z,8.00
2022-10-23T23:45:42.252Z,8.00
2022-10-23T23:48:15.666Z,8.00
2022-10-23T23:50:48.961Z,8.00
2022-10-23T23:53:22.549Z,8.00
2022-10-23T23:55:56.243Z,7.90
2022-10-23T23:58:29.814Z,7.90
